Portada
METAR-TAF:

METAR-TAF

Aeropuertos :

Brive-la-Gaillarde, Francia

Souillac

latitud: 45-02-28N, longitud: 001-28-59E, altitud: 311 m

Observación

El informe se hizo hace 20 minutos, a las 11:00 UTC
Viento 11 kt del sur, variando entre sureste y sur-suroeste
Temperatura 16°C
Humedad 63%
Presión 1014 hPa
Visibilidad 10 km o más
sin nubes por debajo de 1500 m y sin presencia de cumulonimbus.

METAR: LFSL 231100Z AUTO 17011KT 130V200 CAVOK 16/09 Q1014 NOSIG

Hora: 12:20 (11:20 UTC)

Pronóstico

El informe se hizo hace 3 horas y 20 minutos, a las 08:00 UTC
Pronóstico válido del 23 a las 09 UTC al 23 a las 18 UTC
Viento 8 kt del sur-sureste
Visibilidad 10 km o más
sin nubes por debajo de 1500 m y sin presencia de cumulonimbus.

TAF: LFSL 230800Z 2309/2318 15008KT CAVOK

Observaciones y pronósticos meteorológicos de más de 4000 aeropuertos (mensajes METAR y TAF).

Los puntos amarillos y rojos representan las estaciones disponibles.

Ponga el ratón en el punto deseado para ver el nombre de la estación.

Haga clic para ver las observaciones y los pronósticos meteorológicos.

Para cambiar el mapa : haga clic en los botones verdes con una cruz de color negro para hacer un zoom, en el botón verde con un guión para alejar o en las flechas verdes para mapas adyacentes.


METAR-TAF: